createdAt,value
2023-01-17T00:01:18.601Z,2.70
2023-01-17T00:04:08.049Z,2.92
2023-01-17T00:06:54.631Z,2.75
2023-01-17T00:09:41.367Z,3.45
2023-01-17T00:12:08.159Z,2.67
2023-01-17T00:14:34.853Z,2.33
2023-01-17T00:17:01.766Z,3.30
2023-01-17T00:19:48.272Z,2.40
2023-01-17T00:22:43.115Z,1.90
2023-01-17T00:25:31.904Z,2.10
2023-01-17T00:30:39.357Z,2.20
2023-01-17T00:35:46.198Z,2.17
2023-01-17T00:43:52.811Z,1.77
2023-01-17T00:46:39.444Z,1.80
2023-01-17T00:49:26.180Z,1.90
2023-01-17T00:52:12.858Z,1.50
2023-01-17T00:54:59.429Z,1.90
2023-01-17T00:57:46.036Z,1.70
2023-01-17T01:00:33.059Z,2.10
2023-01-17T01:03:19.689Z,1.80
2023-01-17T01:06:06.285Z,1.98
2023-01-17T01:08:52.821Z,2.10
2023-01-17T01:11:40.429Z,2.45
2023-01-17T01:14:27.838Z,2.33
2023-01-17T01:17:14.370Z,2.00
2023-01-17T01:20:00.977Z,2.10
2023-01-17T01:22:47.574Z,1.70
2023-01-17T01:25:34.121Z,2.15
2023-01-17T01:28:24.069Z,2.50
2023-01-17T01:31:10.665Z,1.90
2023-01-17T01:33:37.338Z,1.90
2023-01-17T01:36:05.373Z,2.30
2023-01-17T01:38:31.981Z,1.98
2023-01-17T01:40:59.859Z,1.80
2023-01-17T01:43:50.708Z,1.05
2023-01-17T01:46:25.506Z,1.10
2023-01-17T01:48:58.608Z,0.75
2023-01-17T01:51:35.419Z,0.60
2023-01-17T01:54:08.862Z,0.60
2023-01-17T01:56:35.661Z,0.70
2023-01-17T01:59:03.298Z,1.25
2023-01-17T02:01:30.160Z,0.80
2023-01-17T02:03:56.935Z,0.50
2023-01-17T02:06:40.091Z,0.52
2023-01-17T02:09:08.630Z,0.40
2023-01-17T02:11:37.101Z,1.42
2023-01-17T02:14:03.757Z,0.80
2023-01-17T02:16:54.544Z,0.70
2023-01-17T02:20:01.159Z,0.55
2023-01-17T02:22:44.973Z,0.50
2023-01-17T02:25:51.491Z,0.68
2023-01-17T02:28:47.452Z,0.60
2023-01-17T02:31:22.310Z,0.77
2023-01-17T02:34:13.951Z,0.85
2023-01-17T02:36:47.705Z,0.60
2023-01-17T02:39:19.808Z,0.70
2023-01-17T02:41:48.954Z,0.73
2023-01-17T02:44:17.014Z,0.60
2023-01-17T02:46:47.010Z,0.90
2023-01-17T02:49:14.358Z,0.60
2023-01-17T02:52:20.833Z,0.70
2023-01-17T02:55:14.334Z,0.73
2023-01-17T02:58:20.820Z,0.57
2023-01-17T03:00:57.879Z,0.73
2023-01-17T03:03:30.315Z,0.43
2023-01-17T03:06:03.361Z,0.55
2023-01-17T03:08:30.041Z,0.98
2023-01-17T03:10:56.741Z,0.60
2023-01-17T03:13:23.473Z,0.55
2023-01-17T03:15:50.136Z,0.80
2023-01-17T03:18:17.043Z,0.80
2023-01-17T03:20:43.733Z,0.68
2023-01-17T03:23:10.445Z,0.60
2023-01-17T03:25:37.260Z,0.63
2023-01-17T03:28:04.263Z,0.55
2023-01-17T03:30:30.940Z,0.73
2023-01-17T03:32:57.675Z,0.50
2023-01-17T03:35:24.288Z,0.55
2023-01-17T03:37:50.986Z,0.50
2023-01-17T03:40:17.844Z,0.73
2023-01-17T03:42:44.669Z,0.60
2023-01-17T03:45:11.551Z,1.08
2023-01-17T03:47:38.199Z,0.40
2023-01-17T03:50:05.240Z,0.98
2023-01-17T03:52:32.329Z,0.52
2023-01-17T03:54:59.481Z,0.60
2023-01-17T03:57:26.163Z,0.60
2023-01-17T03:59:52.792Z,0.77
2023-01-17T04:02:19.469Z,0.55
2023-01-17T04:04:46.235Z,0.90
2023-01-17T04:07:13.073Z,0.55
2023-01-17T04:09:39.807Z,0.63
2023-01-17T04:12:07.092Z,0.50
2023-01-17T04:14:33.767Z,0.73
2023-01-17T04:17:01.298Z,0.70
2023-01-17T04:19:28.003Z,1.00
2023-01-17T04:21:54.618Z,0.40
2023-01-17T04:24:21.429Z,0.93
2023-01-17T04:26:48.078Z,0.55
2023-01-17T04:29:14.955Z,0.50
2023-01-17T04:31:41.634Z,0.47
2023-01-17T04:34:08.349Z,0.60
2023-01-17T04:36:35.338Z,0.68
2023-01-17T04:39:02.042Z,1.40
2023-01-17T04:41:28.749Z,1.55
2023-01-17T04:43:55.383Z,1.48
2023-01-17T04:46:22.047Z,0.88
2023-01-17T04:48:48.672Z,0.80
2023-01-17T04:51:15.314Z,0.95
2023-01-17T04:53:41.943Z,0.93
2023-01-17T04:56:08.557Z,1.23
2023-01-17T04:58:35.242Z,0.68
2023-01-17T05:01:04.311Z,0.57
2023-01-17T05:03:31.305Z,0.80
2023-01-17T05:05:58.027Z,0.80
2023-01-17T05:08:24.812Z,1.40
2023-01-17T05:10:51.528Z,0.45
2023-01-17T05:13:18.516Z,0.88
2023-01-17T05:15:45.928Z,1.13
2023-01-17T05:18:14.052Z,0.93
2023-01-17T05:20:40.721Z,0.60
2023-01-17T05:23:07.472Z,0.50
2023-01-17T05:25:34.276Z,0.77
2023-01-17T05:28:01.075Z,0.63
2023-01-17T05:30:28.743Z,1.08
2023-01-17T05:32:56.404Z,1.13
2023-01-17T05:35:24.650Z,0.70
2023-01-17T05:37:51.336Z,1.63
2023-01-17T05:40:22.792Z,1.15
2023-01-17T05:42:50.591Z,0.75
2023-01-17T05:45:17.638Z,1.20
2023-01-17T05:47:45.690Z,1.02
2023-01-17T05:50:13.023Z,1.00
2023-01-17T05:52:39.946Z,1.15
2023-01-17T05:55:07.520Z,1.20
2023-01-17T05:57:42.372Z,0.90
2023-01-17T06:00:09.785Z,1.30
2023-01-17T06:02:36.555Z,1.17
2023-01-17T06:05:03.667Z,0.85
2023-01-17T06:07:30.443Z,1.20
2023-01-17T06:09:57.082Z,1.00
2023-01-17T06:12:23.949Z,1.27
2023-01-17T06:14:50.640Z,1.35
2023-01-17T06:17:17.489Z,1.45
2023-01-17T06:19:45.554Z,1.08
2023-01-17T06:22:12.185Z,1.30
2023-01-17T06:24:38.923Z,1.25
2023-01-17T06:27:08.554Z,2.80
2023-01-17T06:29:35.313Z,3.75
2023-01-17T06:32:02.943Z,3.10
2023-01-17T06:34:29.892Z,3.20
2023-01-17T06:36:57.298Z,3.80
2023-01-17T06:39:24.243Z,4.20
2023-01-17T06:41:52.534Z,4.18
2023-01-17T06:44:22.318Z,4.28
2023-01-17T06:46:49.082Z,4.60
2023-01-17T06:49:15.826Z,3.58
2023-01-17T06:51:43.698Z,4.38
2023-01-17T06:54:10.699Z,3.92
2023-01-17T06:56:37.458Z,4.57
2023-01-17T06:59:04.547Z,4.32
2023-01-17T07:01:31.912Z,4.72
2023-01-17T07:03:58.871Z,4.97
2023-01-17T07:06:28.638Z,4.53
2023-01-17T07:08:56.480Z,4.35
2023-01-17T07:11:23.132Z,5.10
2023-01-17T07:13:50.414Z,4.60
2023-01-17T07:16:17.180Z,4.68
2023-01-17T07:18:43.900Z,5.30
2023-01-17T07:21:14.144Z,4.65
2023-01-17T07:23:40.850Z,5.25
2023-01-17T07:26:07.534Z,5.50
2023-01-17T07:28:34.242Z,5.18
2023-01-17T07:31:05.858Z,5.47
2023-01-17T07:33:32.623Z,5.28
2023-01-17T07:36:03.179Z,4.78
2023-01-17T07:38:29.805Z,5.45
2023-01-17T07:41:00.031Z,4.55
2023-01-17T07:43:26.962Z,5.00
2023-01-17T07:45:53.686Z,5.25
2023-01-17T07:48:21.834Z,4.50
2023-01-17T07:50:53.144Z,4.57
2023-01-17T07:53:20.367Z,4.38
2023-01-17T07:55:47.141Z,4.63
2023-01-17T07:58:14.942Z,4.50
2023-01-17T08:00:43.978Z,4.82
2023-01-17T08:03:13.609Z,3.15
2023-01-17T08:05:41.373Z,3.83
2023-01-17T08:08:08.265Z,3.10
2023-01-17T08:10:34.963Z,3.20
2023-01-17T08:13:01.696Z,3.42
2023-01-17T08:15:28.595Z,2.55
2023-01-17T08:17:57.527Z,3.53
2023-01-17T08:20:27.808Z,3.03
2023-01-17T08:23:01.642Z,2.65
2023-01-17T08:25:28.312Z,2.80
2023-01-17T08:27:56.984Z,2.95
2023-01-17T08:30:24.117Z,3.08
2023-01-17T08:32:51.207Z,3.40
2023-01-17T08:35:19.863Z,2.65
2023-01-17T08:37:47.334Z,2.78
2023-01-17T08:40:17.389Z,2.63
2023-01-17T08:42:44.266Z,2.67
2023-01-17T08:45:11.572Z,3.20
2023-01-17T08:47:38.370Z,3.30
2023-01-17T08:50:06.783Z,2.80
2023-01-17T08:52:33.948Z,3.08
2023-01-17T08:55:39.322Z,3.42
2023-01-17T08:58:30.968Z,2.97
2023-01-17T09:01:07.430Z,2.78
2023-01-17T09:03:34.610Z,2.60
2023-01-17T09:06:04.034Z,2.97
2023-01-17T09:08:39.585Z,3.47
2023-01-17T09:11:08.623Z,3.20
2023-01-17T09:13:35.618Z,2.83
2023-01-17T09:16:02.532Z,2.92
2023-01-17T09:18:29.717Z,3.55
2023-01-17T09:20:59.122Z,4.18
2023-01-17T09:23:27.160Z,5.38
2023-01-17T09:25:59.536Z,4.93
2023-01-17T09:28:26.919Z,3.90
2023-01-17T09:30:53.886Z,2.92
2023-01-17T09:33:20.746Z,4.03
2023-01-17T09:35:47.455Z,2.58
2023-01-17T09:38:14.159Z,2.53
2023-01-17T09:40:45.636Z,2.85
2023-01-17T09:43:40.046Z,3.22
2023-01-17T09:46:12.783Z,2.30
2023-01-17T09:48:39.623Z,2.78
2023-01-17T09:51:14.420Z,2.80
2023-01-17T09:53:41.650Z,1.48
2023-01-17T09:56:12.112Z,2.55
2023-01-17T09:59:05.461Z,1.27
2023-01-17T10:02:12.152Z,3.92
2023-01-17T10:05:18.739Z,3.10
2023-01-17T10:08:23.918Z,3.25
2023-01-17T10:11:20.852Z,2.72
2023-01-17T10:25:06.807Z,1.73
2023-01-17T10:27:35.554Z,1.30
2023-01-17T10:30:03.461Z,1.90
2023-01-17T10:32:31.325Z,1.67
2023-01-17T10:35:00.280Z,1.08
2023-01-17T10:37:43.323Z,1.60
2023-01-17T10:40:17.972Z,1.70
2023-01-17T10:42:50.915Z,3.17
2023-01-17T10:45:21.123Z,2.03
2023-01-17T10:47:51.478Z,2.10
2023-01-17T10:50:18.202Z,1.80
2023-01-17T10:53:11.049Z,3.92
2023-01-17T10:55:43.326Z,2.17
2023-01-17T10:58:12.473Z,2.33
2023-01-17T11:00:50.359Z,1.85
2023-01-17T11:03:20.738Z,3.25
2023-01-17T11:06:23.285Z,1.35
2023-01-17T11:08:55.157Z,6.30
2023-01-17T11:11:23.998Z,2.85
2023-01-17T11:13:50.918Z,3.83
2023-01-17T11:16:21.285Z,5.20
2023-01-17T11:18:49.112Z,2.38
2023-01-17T11:21:17.171Z,4.45
2023-01-17T11:23:47.545Z,2.42
2023-01-17T11:26:30.945Z,2.85
2023-01-17T11:29:37.769Z,3.05
2023-01-17T11:32:29.460Z,4.13
2023-01-17T11:35:17.689Z,2.28
2023-01-17T11:37:48.847Z,3.67
2023-01-17T11:43:02.871Z,3.28
2023-01-17T11:45:31.116Z,3.78
2023-01-17T11:48:15.167Z,3.78
2023-01-17T11:50:57.749Z,6.40
2023-01-17T11:53:37.439Z,3.40
2023-01-17T11:56:08.994Z,4.88
2023-01-17T11:58:38.417Z,3.72
2023-01-17T12:01:19.226Z,3.97
2023-01-17T12:03:54.324Z,2.72
2023-01-17T12:06:57.517Z,2.72
2023-01-17T12:09:35.637Z,2.28
2023-01-17T12:14:45.766Z,2.80
2023-01-17T12:17:40.674Z,3.20
2023-01-17T12:20:16.454Z,3.28
2023-01-17T12:23:13.828Z,2.67
2023-01-17T12:26:06.548Z,3.53
2023-01-17T12:29:08.437Z,2.70
2023-01-17T12:31:39.032Z,2.92
2023-01-17T12:34:21.391Z,3.55
2023-01-17T12:37:15.074Z,2.50
2023-01-17T12:39:43.740Z,2.65
2023-01-17T12:42:15.671Z,2.05
2023-01-17T12:45:20.208Z,2.53
2023-01-17T12:47:49.238Z,2.20
2023-01-17T12:50:39.586Z,2.38
2023-01-17T12:53:34.696Z,4.90
2023-01-17T12:56:09.283Z,2.55
2023-01-17T12:58:45.860Z,4.53
2023-01-17T13:01:39.849Z,2.38
2023-01-17T13:04:29.616Z,4.28
2023-01-17T13:07:05.351Z,6.00
2023-01-17T13:09:36.793Z,4.63
2023-01-17T13:12:09.318Z,4.07
2023-01-17T13:14:36.216Z,2.50
2023-01-17T13:17:24.572Z,2.65
2023-01-17T13:20:31.972Z,2.83
2023-01-17T13:23:03.715Z,4.13
2023-01-17T13:25:38.294Z,3.67
2023-01-17T13:28:24.623Z,4.38
2023-01-17T13:31:15.403Z,3.05
2023-01-17T13:33:52.173Z,3.25
2023-01-17T13:36:42.937Z,5.30
2023-01-17T13:42:21.739Z,2.67
2023-01-17T13:44:48.314Z,4.10
2023-01-17T13:49:58.710Z,2.90
2023-01-17T13:55:03.415Z,3.65
2023-01-17T13:57:34.613Z,1.80
2023-01-17T14:02:59.936Z,2.33
2023-01-17T14:05:47.450Z,3.65
2023-01-17T14:08:17.243Z,4.97
2023-01-17T14:10:46.908Z,4.82
2023-01-17T14:13:35.530Z,3.35
2023-01-17T14:16:22.701Z,2.40
2023-01-17T14:18:49.488Z,2.67
2023-01-17T14:21:24.720Z,2.55
2023-01-17T14:24:00.446Z,3.25
2023-01-17T14:26:29.831Z,3.70
2023-01-17T14:28:56.812Z,5.43
2023-01-17T14:31:23.576Z,4.50
2023-01-17T14:33:50.243Z,3.47
2023-01-17T14:36:29.525Z,6.50
2023-01-17T14:38:56.396Z,5.13
2023-01-17T14:41:25.001Z,6.70
2023-01-17T14:43:51.937Z,3.75
2023-01-17T14:46:25.564Z,3.67
2023-01-17T14:48:58.774Z,5.85
2023-01-17T14:51:25.642Z,5.88
2023-01-17T14:53:54.259Z,3.50
2023-01-17T14:56:21.171Z,4.38
2023-01-17T14:58:47.883Z,4.30
2023-01-17T15:01:18.003Z,6.22
2023-01-17T15:03:48.390Z,6.38
2023-01-17T15:06:37.402Z,5.78
2023-01-17T15:09:21.082Z,5.05
2023-01-17T15:11:48.404Z,5.40
2023-01-17T15:14:19.793Z,4.60
2023-01-17T15:16:46.513Z,4.00
2023-01-17T15:19:14.132Z,5.85
2023-01-17T15:21:43.045Z,6.30
2023-01-17T15:24:20.284Z,5.40
2023-01-17T15:26:46.971Z,3.65
2023-01-17T15:29:21.421Z,5.40
2023-01-17T15:31:50.344Z,6.40
2023-01-17T15:34:37.458Z,5.55
2023-01-17T15:37:05.813Z,5.90
2023-01-17T15:39:34.676Z,5.45
2023-01-17T15:42:03.400Z,6.47
2023-01-17T15:44:52.738Z,6.45
2023-01-17T15:47:39.805Z,5.55
2023-01-17T15:50:27.551Z,5.00
2023-01-17T15:52:56.070Z,6.43
2023-01-17T15:55:28.793Z,6.57
2023-01-17T15:57:55.555Z,4.80
2023-01-17T16:00:25.711Z,2.92
2023-01-17T16:02:57.639Z,4.07
2023-01-17T16:05:31.012Z,3.75
2023-01-17T16:10:39.385Z,3.45
2023-01-17T16:13:07.097Z,4.57
2023-01-17T16:15:35.187Z,5.55
2023-01-17T16:18:14.580Z,4.32
2023-01-17T16:21:00.750Z,4.40
2023-01-17T16:23:27.858Z,5.15
2023-01-17T16:25:54.511Z,4.05
2023-01-17T16:28:21.234Z,4.70
2023-01-17T16:30:48.803Z,3.72
2023-01-17T16:33:15.966Z,5.03
2023-01-17T16:35:43.047Z,3.80
2023-01-17T16:38:12.020Z,6.63
2023-01-17T16:40:40.958Z,6.55
2023-01-17T16:43:07.751Z,5.88
2023-01-17T16:45:40.032Z,5.70
2023-01-17T16:48:07.059Z,6.10
2023-01-17T16:50:33.754Z,5.57
2023-01-17T16:53:00.487Z,4.63
2023-01-17T16:55:27.412Z,4.38
2023-01-17T16:57:56.334Z,6.13
2023-01-17T17:00:23.202Z,5.20
2023-01-17T17:02:50.874Z,4.85
2023-01-17T17:05:17.864Z,4.82
2023-01-17T17:07:45.915Z,4.60
2023-01-17T17:10:14.409Z,4.85
2023-01-17T17:12:41.250Z,3.85
2023-01-17T17:15:08.642Z,4.50
2023-01-17T17:17:37.558Z,4.47
2023-01-17T17:20:05.706Z,4.68
2023-01-17T17:22:32.777Z,4.80
2023-01-17T17:24:59.496Z,5.03
2023-01-17T17:27:27.823Z,5.15
2023-01-17T17:29:54.729Z,4.60
2023-01-17T17:32:21.499Z,4.93
2023-01-17T17:34:50.490Z,4.90
2023-01-17T17:37:17.159Z,3.90
2023-01-17T17:39:44.494Z,4.10
2023-01-17T17:42:11.577Z,4.00
2023-01-17T17:44:38.219Z,4.47
2023-01-17T17:47:04.957Z,3.70
2023-01-17T17:49:31.606Z,4.68
2023-01-17T17:52:06.226Z,3.88
2023-01-17T17:54:33.011Z,4.50
2023-01-17T17:56:59.679Z,2.72
2023-01-17T17:59:26.587Z,4.00
2023-01-17T18:01:53.561Z,3.90
2023-01-17T18:04:21.485Z,6.13
2023-01-17T18:06:48.428Z,5.15
2023-01-17T18:09:15.232Z,4.38
2023-01-17T18:11:42.547Z,4.15
2023-01-17T18:14:10.875Z,5.25
2023-01-17T18:16:41.473Z,4.45
2023-01-17T18:19:11.497Z,4.32
2023-01-17T18:21:38.503Z,3.83
2023-01-17T18:24:10.709Z,3.58
2023-01-17T18:26:43.102Z,2.95
2023-01-17T18:29:12.551Z,2.20
2023-01-17T18:31:39.293Z,2.53
2023-01-17T18:34:07.761Z,2.95
2023-01-17T18:36:34.806Z,3.42
2023-01-17T18:39:02.206Z,3.35
2023-01-17T18:41:29.868Z,2.78
2023-01-17T18:43:56.697Z,2.42
2023-01-17T18:46:23.919Z,2.90
2023-01-17T18:48:50.690Z,3.55
2023-01-17T18:51:18.577Z,2.30
2023-01-17T18:53:45.674Z,3.03
2023-01-17T18:56:13.998Z,2.92
2023-01-17T18:58:42.200Z,3.38
2023-01-17T19:01:13.614Z,3.90
2023-01-17T19:03:41.325Z,3.43
2023-01-17T19:06:10.849Z,3.13
2023-01-17T19:08:38.036Z,3.42
2023-01-17T19:11:04.856Z,3.40
2023-01-17T19:13:32.570Z,3.33
2023-01-17T19:16:00.460Z,2.85
2023-01-17T19:18:27.581Z,2.67
2023-01-17T19:20:54.437Z,3.33
2023-01-17T19:23:21.661Z,3.08
2023-01-17T19:25:53.834Z,3.28
2023-01-17T19:28:20.802Z,2.88
2023-01-17T19:30:47.441Z,3.63
2023-01-17T19:33:14.130Z,3.30
2023-01-17T19:35:40.987Z,3.45
2023-01-17T19:38:07.776Z,3.28
2023-01-17T19:40:34.412Z,3.22
2023-01-17T19:43:01.350Z,6.90
2023-01-17T19:45:28.065Z,4.70
2023-01-17T19:47:55.083Z,3.35
2023-01-17T19:50:22.078Z,4.72
2023-01-17T19:52:48.742Z,3.42
2023-01-17T19:55:15.434Z,3.75
2023-01-17T19:57:42.160Z,3.97
2023-01-17T20:00:12.903Z,4.07
2023-01-17T20:02:39.703Z,3.50
2023-01-17T20:05:06.855Z,3.63
2023-01-17T20:07:33.957Z,3.40
2023-01-17T20:10:00.958Z,3.38
2023-01-17T20:12:27.735Z,3.80
2023-01-17T20:14:54.557Z,4.05
2023-01-17T20:17:21.430Z,4.25
2023-01-17T20:19:48.175Z,4.38
2023-01-17T20:22:14.938Z,5.82
2023-01-17T20:24:41.641Z,3.78
2023-01-17T20:27:08.466Z,4.75
2023-01-17T20:29:35.543Z,3.50
2023-01-17T20:32:02.273Z,3.83
2023-01-17T20:34:29.118Z,3.85
2023-01-17T20:36:58.022Z,4.35
2023-01-17T20:39:24.864Z,4.32
2023-01-17T20:41:51.980Z,4.75
2023-01-17T20:44:19.548Z,4.45
2023-01-17T20:46:47.760Z,4.65
2023-01-17T20:49:17.026Z,4.70
2023-01-17T20:51:44.600Z,4.80
2023-01-17T20:54:14.202Z,4.30
2023-01-17T20:56:41.063Z,4.18
2023-01-17T20:59:09.512Z,4.65
2023-01-17T21:01:36.849Z,5.57
2023-01-17T21:04:03.784Z,4.13
2023-01-17T21:06:30.555Z,3.88
2023-01-17T21:08:57.249Z,3.80
2023-01-17T21:11:25.097Z,4.47
2023-01-17T21:13:51.937Z,4.10
2023-01-17T21:16:20.304Z,3.28
2023-01-17T21:18:47.890Z,3.65
2023-01-17T21:21:17.639Z,3.38
2023-01-17T21:23:44.783Z,3.83
2023-01-17T21:26:13.145Z,3.58
2023-01-17T21:28:41.009Z,4.10
2023-01-17T21:31:20.374Z,3.20
2023-01-17T21:33:47.628Z,3.10
2023-01-17T21:36:14.714Z,3.13
2023-01-17T21:38:41.350Z,4.07
2023-01-17T21:41:08.254Z,2.92
2023-01-17T21:43:35.103Z,3.33
2023-01-17T21:46:03.243Z,3.20
2023-01-17T21:48:30.194Z,3.63
2023-01-17T21:51:02.578Z,2.67
2023-01-17T21:53:30.082Z,3.60
2023-01-17T21:56:20.935Z,3.22
2023-01-17T21:58:53.267Z,3.17
2023-01-17T22:01:22.396Z,3.75
2023-01-17T22:03:51.584Z,3.58
2023-01-17T22:06:18.855Z,2.58
2023-01-17T22:08:45.645Z,3.28
2023-01-17T22:11:14.662Z,3.05
2023-01-17T22:13:42.293Z,3.00
2023-01-17T22:16:12.553Z,2.85
2023-01-17T22:18:39.951Z,3.17
2023-01-17T22:21:10.496Z,2.78
2023-01-17T22:23:37.285Z,3.20
2023-01-17T22:26:05.495Z,2.45
2023-01-17T22:28:32.678Z,2.70
2023-01-17T22:31:10.608Z,3.20
2023-01-17T22:33:37.775Z,3.05
2023-01-17T22:36:05.641Z,2.65
2023-01-17T22:38:33.017Z,2.60
2023-01-17T22:41:07.631Z,2.65
2023-01-17T22:43:37.377Z,2.70
2023-01-17T22:46:05.537Z,3.25
2023-01-17T22:48:33.406Z,3.55
2023-01-17T22:51:02.182Z,2.83
2023-01-17T22:53:29.215Z,3.17
2023-01-17T22:56:04.119Z,2.65
2023-01-17T22:58:30.818Z,2.80
2023-01-17T23:01:13.509Z,2.70
2023-01-17T23:03:40.846Z,2.50
2023-01-17T23:06:09.447Z,2.55
2023-01-17T23:08:37.056Z,2.28
2023-01-17T23:11:27.014Z,2.40
2023-01-17T23:13:53.600Z,2.45
2023-01-17T23:16:40.179Z,2.70
2023-01-17T23:19:22.894Z,3.03
2023-01-17T23:24:43.363Z,2.20
2023-01-17T23:27:37.302Z,2.42
2023-01-17T23:30:13.398Z,2.30
2023-01-17T23:32:43.848Z,2.55
2023-01-17T23:35:10.736Z,3.22
2023-01-17T23:37:57.546Z,2.28
2023-01-17T23:40:24.342Z,2.60
2023-01-17T23:43:12.134Z,2.33
2023-01-17T23:45:39.168Z,2.72
2023-01-17T23:48:09.096Z,3.03
2023-01-17T23:50:37.026Z,2.22
2023-01-17T23:53:07.201Z,2.40
2023-01-17T23:55:42.115Z,2.40
2023-01-17T23:58:12.502Z,2.17
